Aérodrome :
LOGIN :

S'inscrire | Disclaimer

   EN    FR    IT 

 










Légende :    VFR   VFR Marginal   IFR   IFR Intensif   IFR Très Intensif
Visi : 
Plafond : 
>= 8 km
>= 3000ft
5 à 8 km
1000 à 3000 ft
1500m à 5 km
500 à 1000 ft
800 à 1500m
200 à 500 ft
< 800m
< 200 ft
Symboles :   Orages  Brouillard  Fortes neiges  Fortes précipitations  Vent > 20 kt
SIGMETs :   Divers  Orages  Givrage  Turbulence  Onde Orograph.  Cendres Volcan.







- Altitude de l'aérodrome : 37 ft


EHVL - Vlieland Heliport

DERNIER METAR :
  • 261528Z AUTO 23024KT 8000 DZRA FEW015CB BKN027 BKN036 BKN069 14/13 Q1007 BLU

METARs EXPIRÉS :
  • 261525Z AUTO 23025KT 8000 -DZ FEW015CB SCT033 BKN075 14/13 Q1007 REDZ BLU
  • 261503Z AUTO 23024KT 7000 DZRA FEW015CB SCT059 BKN066 14/13 Q1008 WHT
  • 261458Z AUTO 23024KT 7000 DZ FEW015CB SCT031 BKN063 14/13 Q1008 WHT
  • 261445Z AUTO 23025KT 9999 -DZRA FEW015CB BKN029 OVC033 14/13 Q1008 BLU
  • 261425Z AUTO 23024KT 9999 OVC027 14/13 Q1008 BLU
  • 261411Z AUTO 22023KT 9000 BR FEW002 BKN024 OVC027 14/13 Q1008 WHT
  • 261359Z AUTO 22022KT 8000 BR FEW002 OVC023 14/13 Q1008 WHT
  • 261346Z AUTO 22022KT 6000 DZ FEW005 FEW015CB BKN020 OVC023 14/13 Q1008 WHT
  • 261341Z AUTO 23022KT 3900 -RA FEW005 SCT010 FEW015CB OVC022 14/13 Q1008 GRN
  • 261329Z AUTO 23022KT 2700 -SHRA FEW007 FEW015CB BKN023 BKN027 14/13 Q1008 YLO
  • 261313Z AUTO 23022KT 3200 -SHRA FEW015CB BKN020 OVC025 14/13 Q1008 YLO
  • 261303Z AUTO 23021KT 5000 DZ FEW004 OVC015 14/13 Q1008 WHT
  • 261255Z AUTO 23021KT 3000 DZ FEW004 SCT006 BKN013 FEW015CB 14/13 Q1008 YLO
  • 261244Z AUTO 23023KT 3400 +DZ FEW007 SCT008 BKN011 FEW015CB 14/13 Q1009 YLO

Prévision TAF périmée.
Pas de NOTAMs connus pour ce terrain.



MET'MAP, la Météo Aéronautique d'un coup d'oeil ! - Copyright ORBIFLY Décembre 2007 - Disclaimer

ORBIFLY MET'MAP TEAM :

Programmation & Développement : Alexandra Zaïnal
Conception & Développement : Baudouin d'Aumeries
Co-Programmation & Développement : Marc-Olivier Méhu
Soutien technique & logistique : Manuel Goepfert

Contact : metmap@orbifly.com




SOURCES & CREDITS :

   NOAA